Liberty — WDC2845 — position and weather

sailwx.info

Track history (hours):
 
Tides and Currents Weather Stations Pressure Air Temp Water Temp Dewpoint Dewpoint Depression Visibility Wind Speed Wind Dir Waves Ship Positions

Liberty

Owner: AMNAV Maritime Corporation, Oakland, CA. More information available from US FCC via Universal Licensing System and Coast Guard Vessel Documentation Center.

Last reported at 2017-Dec-11 17:00 UTC. Time now 2017-Dec-13 01:50 UTC.
Position N 37°48' W 122°20'.

Length 20 m; draft 4.6 m.

Type: Towing. MMSI: 366998510.

Date/timePositionNaut miles runAvg speedWind from/ knotsBaromVisibWave heightAir tempDewpointWater temp
2017-Dec-11 17:00N 37°48' W 122°20'1 1.9
2017-Dec-11 16:30N 37°48' W 122°19'1 1.8
2017-Dec-11 16:00N 37°48' W 122°17'1 1.3
2017-Dec-11 15:30N 37°48' W 122°18'2 4.6
2017-Dec-11 15:00N 37°48' W 122°21'1 1.4
2017-Dec-11 14:30N 37°49' W 122°20'1 1.1
2017-Dec-11 14:00N 37°49' W 122°20'1 1.9
2017-Dec-11 13:31N 37°48' W 122°21'0 0.5
2017-Dec-11 13:00N 37°48' W 122°21'2 3.2
2017-Dec-11 12:31N 37°48' W 122°19'1 2.2
2017-Dec-11 12:01N 37°47' W 122°17'1 1.7
2017-Dec-11 11:31N 37°48' W 122°18'0 0.9
2017-Dec-11 11:01N 37°48' W 122°19'0 0.8
2017-Dec-11 10:31N 37°48' W 122°18'0 0.0
2017-Dec-11 10:01N 37°48' W 122°18'0 0.0
2017-Dec-11 09:30N 37°48' W 122°18'0 0.0
2017-Dec-11 09:00N 37°48' W 122°18'0 0.0
2017-Dec-11 08:30N 37°48' W 122°18'0 0.0
2017-Dec-11 08:00N 37°48' W 122°18'0 0.0
2017-Dec-11 07:31N 37°48' W 122°18'0 0.0
2017-Dec-11 07:01N 37°48' W 122°18'0 0.0
2017-Dec-11 06:31N 37°48' W 122°18'0 0.0
2017-Dec-11 06:01N 37°48' W 122°18'0 0.0
2017-Dec-11 05:30N 37°48' W 122°18'1 2.9
2017-Dec-11 05:00N 37°49' W 122°19'3 5.4
2017-Dec-11 04:30N 37°50' W 122°22'4 8.9
2017-Dec-11 04:00N 37°54' W 122°24'2 3.2
2017-Dec-11 03:30N 37°54' W 122°22'1 2.2
2017-Dec-11 03:00N 37°54' W 122°23'0 0.7
2017-Dec-11 02:31N 37°54' W 122°24'0 0.5
2017-Dec-11 02:01N 37°55' W 122°23'0 0.0
2017-Dec-11 01:31N 37°55' W 122°23'0 0.0
2017-Dec-11 01:00N 37°55' W 122°23'0 0.0
2017-Dec-11 00:30N 37°55' W 122°23'0 0.0
2017-Dec-11 00:00N 37°55' W 122°23'0 0.0
2017-Dec-10 23:30N 37°55' W 122°23'0 0.0
2017-Dec-10 23:00N 37°55' W 122°23'4 7.7
2017-Dec-10 22:30N 37°58' W 122°26'611.0
2017-Dec-10 22:00N 38°02' W 122°21'612.9
2017-Dec-10 21:30N 38°04' W 122°14'1011.4
2017-Dec-10 20:36N 38°04' W 122°01'312.1
2017-Dec-10 20:22N 38°03' W 121°57'512.6
2017-Dec-10 20:00N 38°02' W 121°51'4 6.5
2017-Dec-10 19:28N 38°01' W 121°47'0 0.3
2017-Dec-10 18:59N 38°01' W 121°47'2 5.0
2017-Dec-10 18:30N 38°02' W 121°50'3 5.7
2017-Dec-10 18:01N 38°03' W 121°54'1 1.1
2017-Dec-10 17:30N 38°03' W 121°54'2 1.5
2017-Dec-10 16:12N 38°02' W 121°52'0 1.3
2017-Dec-10 16:00N 38°02' W 121°52'0 0.0
2017-Dec-10 15:30N 38°02' W 121°52'0 0.0
2017-Dec-10 14:58N 38°02' W 121°52'0 0.0
2017-Dec-10 14:30N 38°02' W 121°52'1 1.4
2017-Dec-10 13:38N 38°02' W 121°53'1 9.6
2017-Dec-10 13:31N 38°03' W 121°55'711.0
2017-Dec-10 12:54N 38°04' W 122°03'4 6.9
2017-Dec-10 12:16N 38°02' W 122°08'0 0.6
2017-Dec-10 12:00N 38°02' W 122°08'1 2.7
2017-Dec-10 11:31N 38°02' W 122°10'2 3.6
2017-Dec-10 11:00N 38°02' W 122°07'3 0.5
2017-Dec-10 06:00N 38°03' W 122°11'4 8.0
2017-Dec-10 05:30N 38°04' W 122°15'4 8.9
2017-Dec-10 05:01N 38°02' W 122°21'5 8.8
2017-Dec-10 04:30N 37°59' W 122°25'4 8.4
2017-Dec-10 04:01N 37°55' W 122°25'0 0.6
2017-Dec-10 03:31N 37°55' W 122°25'0 0.0
2017-Dec-10 03:00N 37°55' W 122°25'1 2.1
2017-Dec-10 02:30N 37°55' W 122°26'0 0.1
2017-Dec-10 02:00N 37°55' W 122°26'2 3.9
2017-Dec-10 01:30N 37°54' W 122°23'0 0.3
2017-Dec-10 01:01N 37°55' W 122°23'0 0.0
2017-Dec-10 00:31N 37°55' W 122°23'0 0.0
2017-Dec-10 00:01N 37°55' W 122°23'1 2.3
2017-Dec-09 23:30N 37°55' W 122°22'0 0.4
2017-Dec-09 23:01N 37°55' W 122°22'1 2.1
2017-Dec-09 22:31N 37°54' W 122°23'4 8.7
2017-Dec-09 22:00N 37°58' W 122°26'610.7
2017-Dec-09 21:28N 38°02' W 122°21'612.5
2017-Dec-09 20:59N 38°04' W 122°14'4 0.3
2017-Dec-09 07:09N 38°02' W 122°08'0 0.0
2017-Dec-09 04:46N 38°02' W 122°08'0 0.0
2017-Dec-09 02:28N 38°02' W 122°08'0 0.3
2017-Dec-09 02:00N 38°02' W 122°08'1 0.9
2017-Dec-09 01:23N 38°02' W 122°07'0 0.0
2017-Dec-09 00:56N 38°02' W 122°07'0 0.1
2017-Dec-09 00:30N 38°02' W 122°08'1 1.9
2017-Dec-08 23:45N 38°02' W 122°09'1 0.2
2017-Dec-08 19:50N 38°02' W 122°08'0 0.0
2017-Dec-08 19:21N 38°02' W 122°08'0 0.0
2017-Dec-08 17:46N 38°02' W 122°08'2 7.6
2017-Dec-08 17:30N 38°03' W 122°11'4 8.0
2017-Dec-08 17:00N 38°03' W 122°16'0 0.0
2017-Dec-08 16:30N 38°03' W 122°16'0 0.2
2017-Dec-08 16:00N 38°03' W 122°16'2 4.1
2017-Dec-08 15:30N 38°03' W 122°18'3 5.8
2017-Dec-08 15:00N 38°02' W 122°22'3 6.2
2017-Dec-08 14:30N 38°00' W 122°25'3 6.2
2017-Dec-08 14:00N 37°57' W 122°27'2 5.1
2017-Dec-08 13:30N 37°55' W 122°26'0 0.3
2017-Dec-08 13:01N 37°55' W 122°26'1 2.9
2017-Dec-08 12:30N 37°56' W 122°26'5 9.5
2017-Dec-08 12:00N 38°01' W 122°24'5 9.9
2017-Dec-08 11:30N 38°03' W 122°18'5 9.2
2017-Dec-08 11:00N 38°03' W 122°12'3 3.7
2017-Dec-08 10:04N 38°02' W 122°08'0 1.9
2017-Dec-08 10:00N 38°02' W 122°08'1 1.4
2017-Dec-08 09:30N 38°02' W 122°09'1 1.5
2017-Dec-08 09:00N 38°02' W 122°08'0 0.0
2017-Dec-08 08:30N 38°02' W 122°08'0 0.0
2017-Dec-08 08:00N 38°02' W 122°08'0 0.0
2017-Dec-08 07:30N 38°02' W 122°08'0 0.0
2017-Dec-08 07:00N 38°02' W 122°08'0 0.0
2017-Dec-08 06:30N 38°02' W 122°08'0 0.0
2017-Dec-08 06:00N 38°02' W 122°08'0 0.0
2017-Dec-08 05:30N 38°02' W 122°08'0 0.0
2017-Dec-08 05:00N 38°02' W 122°08'0 0.0
2017-Dec-08 04:30N 38°02' W 122°08'0 0.0
2017-Dec-08 04:00N 38°02' W 122°08'0 0.0
2017-Dec-08 03:30N 38°02' W 122°08'1 2.1
2017-Dec-08 03:00N 38°02' W 122°09'5 9.1
2017-Dec-08 02:30N 38°04' W 122°15'510.0
2017-Dec-08 02:00N 38°02' W 122°21'5 9.7
2017-Dec-08 01:30N 37°59' W 122°25'5 9.6
2017-Dec-08 01:00N 37°54' W 122°25'611.5
2017-Dec-08 00:30N 37°49' W 122°21'1 2.1
2017-Dec-08 00:00N 37°49' W 122°20'2 3.1
2017-Dec-07 23:30N 37°48' W 122°19'1 1.6
2017-Dec-07 23:00N 37°48' W 122°20'2 3.3
2017-Dec-07 22:31N 37°48' W 122°22'3 5.5
2017-Dec-07 22:00N 37°49' W 122°19'0 0.0
2017-Dec-07 21:30N 37°49' W 122°19'0 0.1
2017-Dec-07 21:00N 37°49' W 122°19'0 0.1
2017-Dec-07 20:30N 37°49' W 122°19'0 0.0
2017-Dec-07 20:00N 37°49' W 122°19'0 0.0
2017-Dec-07 19:30N 37°49' W 122°19'0 0.0
2017-Dec-07 19:00N 37°49' W 122°19'0 0.0
2017-Dec-07 18:30N 37°49' W 122°19'0 0.0
2017-Dec-07 18:00N 37°49' W 122°19'0 0.0
2017-Dec-07 17:30N 37°49' W 122°19'0 0.1
2017-Dec-07 17:00N 37°49' W 122°19'0 0.1
2017-Dec-07 16:30N 37°49' W 122°19'0 0.0
2017-Dec-07 16:00N 37°49' W 122°19'0 0.0
2017-Dec-07 15:30N 37°49' W 122°19'0 0.0
2017-Dec-07 15:00N 37°49' W 122°19'0 0.0
2017-Dec-07 14:30N 37°49' W 122°19'0 0.0
2017-Dec-07 14:00N 37°49' W 122°19'0 0.0
2017-Dec-07 13:30N 37°49' W 122°19'0 0.0
2017-Dec-07 13:00N 37°49' W 122°19'1 1.4
2017-Dec-07 12:31N 37°49' W 122°19'1 2.6
2017-Dec-07 12:00N 37°48' W 122°19'0 0.1
2017-Dec-07 11:30N 37°48' W 122°19'0 0.0
2017-Dec-07 11:00N 37°48' W 122°19'0 0.0
2017-Dec-07 10:30N 37°48' W 122°19'0 0.9
2017-Dec-07 10:00N 37°48' W 122°18'2 3.0
2017-Dec-07 09:30N 37°48' W 122°20'2 3.3
2017-Dec-07 09:00N 37°49' W 122°19'0 0.1
2017-Dec-07 08:30N 37°49' W 122°19'0 0.0
2017-Dec-07 08:00N 37°49' W 122°19'0 0.0
2017-Dec-07 07:30N 37°49' W 122°19'0 0.0
2017-Dec-07 07:00N 37°49' W 122°19'0 0.0
2017-Dec-07 06:30N 37°49' W 122°19'0 0.0
2017-Dec-07 06:00N 37°49' W 122°19'0 0.0
2017-Dec-07 05:30N 37°49' W 122°19'0 0.0
2017-Dec-07 05:00N 37°49' W 122°19'0 0.0
2017-Dec-07 04:30N 37°49' W 122°19'0 0.0
2017-Dec-07 04:00N 37°49' W 122°19'0 0.0
2017-Dec-07 03:30N 37°49' W 122°19'2 4.7
2017-Dec-07 03:00N 37°50' W 122°22'611.6
2017-Dec-07 02:30N 37°55' W 122°25'712.8
2017-Dec-07 02:00N 38°01' W 122°23'713.2
2017-Dec-07 01:30N 38°03' W 122°15'611.3
2017-Dec-07 01:00N 38°02' W 122°09'  
2017-Dec-04 10:31N 37°49' W 122°19'0 0.0
2017-Dec-04 10:00N 37°49' W 122°19'0 0.0
2017-Dec-04 09:30N 37°49' W 122°19'0 0.0
2017-Dec-04 09:00N 37°49' W 122°19'0 0.0
2017-Dec-04 08:31N 37°49' W 122°19'0 0.0
2017-Dec-04 08:01N 37°49' W 122°19'0 0.0
2017-Dec-04 07:31N 37°49' W 122°19'0 0.0
2017-Dec-04 07:01N 37°49' W 122°19'0 0.0
2017-Dec-04 06:31N 37°49' W 122°19'0 0.0
2017-Dec-04 06:01N 37°49' W 122°19'0 0.0
2017-Dec-04 05:31N 37°49' W 122°19'0 0.0
2017-Dec-04 05:00N 37°49' W 122°19'0 0.0
2017-Dec-04 04:30N 37°49' W 122°19'0 0.0
2017-Dec-04 04:01N 37°49' W 122°19'0 0.0
2017-Dec-04 03:31N 37°49' W 122°19'0 0.0
2017-Dec-04 03:00N 37°49' W 122°19'0 0.0
2017-Dec-04 02:30N 37°49' W 122°19'0 0.0
2017-Dec-04 02:01N 37°49' W 122°19'0 0.0
2017-Dec-04 01:31N 37°49' W 122°19'0 0.0
2017-Dec-04 01:00N 37°49' W 122°19'0 0.0
2017-Dec-04 00:31N 37°49' W 122°19'0 0.0
2017-Dec-04 00:00N 37°49' W 122°19'0 0.0
2017-Dec-03 23:30N 37°49' W 122°19'0 0.0
2017-Dec-03 23:01N 37°49' W 122°19'0 0.0
2017-Dec-03 22:30N 37°49' W 122°19'0 0.0
2017-Dec-03 22:00N 37°49' W 122°19'0 0.0
2017-Dec-03 21:30N 37°49' W 122°19'0 0.0
2017-Dec-03 21:01N 37°49' W 122°19'0 0.0
2017-Dec-03 20:30N 37°49' W 122°19'0 0.0
2017-Dec-03 20:00N 37°49' W 122°19'0 0.0
2017-Dec-03 19:30N 37°49' W 122°19'0 0.0
2017-Dec-03 19:00N 37°49' W 122°19'0 0.0
2017-Dec-03 18:30N 37°49' W 122°19'0 0.0
2017-Dec-03 18:01N 37°49' W 122°19'0 0.0
2017-Dec-03 17:31N 37°49' W 122°19'0 0.0
2017-Dec-03 17:01N 37°49' W 122°19'0 0.0
2017-Dec-03 16:31N 37°49' W 122°19'0 0.0
2017-Dec-03 16:01N 37°49' W 122°19'0 0.0
2017-Dec-03 15:31N 37°49' W 122°19'0 0.0
2017-Dec-03 15:01N 37°49' W 122°19'0 0.0
2017-Dec-03 14:31N 37°49' W 122°19'2 3.1
2017-Dec-03 14:00N 37°48' W 122°19'0 0.3
2017-Dec-03 13:31N 37°48' W 122°20'2 3.7
2017-Dec-03 13:00N 37°48' W 122°22'3 5.6
2017-Dec-03 12:31N 37°49' W 122°19'0 0.0
2017-Dec-03 12:00N 37°49' W 122°19'0 0.0
2017-Dec-03 11:30N 37°49' W 122°19'0 0.0
2017-Dec-03 11:00N 37°49' W 122°19'0 0.0
2017-Dec-03 10:31N 37°49' W 122°19'0 0.0
2017-Dec-03 10:00N 37°49' W 122°19'0 0.0
2017-Dec-03 09:31N 37°49' W 122°19'0 0.0
2017-Dec-03 09:01N 37°49' W 122°19'0 0.0
2017-Dec-03 08:30N 37°49' W 122°19'0 0.0
2017-Dec-03 08:00N 37°49' W 122°19'0 0.0
2017-Dec-03 07:30N 37°49' W 122°19'0 0.0
2017-Dec-03 07:00N 37°49' W 122°19'0 0.0
2017-Dec-03 06:30N 37°49' W 122°19'0 0.0
2017-Dec-03 06:00N 37°49' W 122°19'0 0.0
2017-Dec-03 05:30N 37°49' W 122°19'0 0.0
2017-Dec-03 05:00N 37°49' W 122°19'0 0.0
2017-Dec-03 04:30N 37°49' W 122°19'0 0.0
2017-Dec-03 04:00N 37°49' W 122°19'0 0.2
2017-Dec-03 03:31N 37°49' W 122°19'1 1.4
2017-Dec-03 03:00N 37°49' W 122°19'0 0.6
2017-Dec-03 02:31N 37°49' W 122°20'0 0.4
2017-Dec-03 02:01N 37°49' W 122°20'1 1.5
2017-Dec-03 01:31N 37°48' W 122°20'0 0.2
2017-Dec-03 01:00N 37°48' W 122°20'2 4.2
2017-Dec-03 00:31N 37°48' W 122°22'2 3.5
2017-Dec-03 00:01N 37°49' W 122°20'0 0.0
2017-Dec-02 23:30N 37°49' W 122°20'0 0.0
2017-Dec-02 23:01N 37°49' W 122°20'0 0.0
2017-Dec-02 22:31N 37°49' W 122°20'3 6.8
2017-Dec-02 22:01N 37°51' W 122°23'5 9.2
2017-Dec-02 21:30N 37°55' W 122°25'0 0.0
2017-Dec-02 21:00N 37°55' W 122°25'0 0.9
2017-Dec-02 20:31N 37°55' W 122°25'1 2.2
2017-Dec-02 20:01N 37°55' W 122°23'0 0.0
2017-Dec-02 19:31N 37°55' W 122°23'0 0.0
2017-Dec-02 19:00N 37°55' W 122°23'3 5.9
2017-Dec-02 18:30N 37°57' W 122°26'5 9.1
2017-Dec-02 18:00N 38°01' W 122°23'5 9.3
2017-Dec-02 17:30N 38°03' W 122°18'5 9.0
2017-Dec-02 17:00N 38°03' W 122°12'4 3.5
2017-Dec-02 15:59N 38°02' W 122°08'0 1.0
2017-Dec-02 15:31N 38°02' W 122°09'0 0.0
2017-Dec-02 07:14N 38°02' W 122°08'1 1.0
2017-Dec-02 06:02N 38°02' W 122°10'0 9.4
2017-Dec-02 06:01N 38°02' W 122°09'1 1.3
2017-Dec-02 05:08N 38°02' W 122°08'0 2.8
2017-Dec-02 05:00N 38°02' W 122°08'1 1.6
2017-Dec-02 04:30N 38°02' W 122°09'1 2.0
2017-Dec-02 04:01N 38°02' W 122°08'0 0.0
2017-Dec-02 03:19N 38°02' W 122°08'0 0.7
2017-Dec-02 03:00N 38°02' W 122°08'4 8.6
2017-Dec-02 02:30N 38°04' W 122°14'4 8.7
2017-Dec-02 02:00N 38°03' W 122°19'5 9.5
2017-Dec-02 01:29N 38°00' W 122°24'5 9.5
2017-Dec-02 01:00N 37°56' W 122°25'3 5.2
2017-Dec-02 00:30N 37°54' W 122°22'0 0.9
2017-Dec-02 00:00N 37°54' W 122°22'0 0.2
2017-Dec-01 23:31N 37°55' W 122°22'1 2.2
2017-Dec-01 23:00N 37°54' W 122°23'2 4.0
2017-Dec-01 22:31N 37°53' W 122°25'510.9
2017-Dec-01 22:01N 37°48' W 122°21'2 4.5
2017-Dec-01 21:30N 37°48' W 122°18'1 1.8
2017-Dec-01 21:00N 37°48' W 122°19'2 3.2
2017-Dec-01 20:30N 37°49' W 122°19'0 0.0
2017-Dec-01 20:00N 37°49' W 122°19'0 0.0
2017-Dec-01 19:31N 37°49' W 122°19'0 0.0
2017-Dec-01 19:01N 37°49' W 122°19'0 0.0
2017-Dec-01 18:31N 37°49' W 122°19'0 0.0
2017-Dec-01 18:01N 37°49' W 122°19'0 0.0
2017-Dec-01 17:31N 37°49' W 122°19'0 0.0
2017-Dec-01 17:01N 37°49' W 122°19'  
Track history (hours):
 
Tides and Currents Weather Stations Pressure Air Temp Water Temp Dewpoint Dewpoint Depression Visibility Wind Speed Wind Dir Waves Ship Positions

Liberty

Owner: AMNAV Maritime Corporation, Oakland, CA. More information available from US FCC via Universal Licensing System and Coast Guard Vessel Documentation Center.

Last reported at 2017-Dec-11 17:00 UTC. Time now 2017-Dec-13 01:50 UTC.
Position N 37°48' W 122°20'.

Length 20 m; draft 4.6 m.

Type: Towing. MMSI: 366998510.

Date/timePositionNaut miles runAvg speedWind from/ knotsBaromVisibWave heightAir tempDewpointWater temp
2017-Dec-11 17:00N 37°48' W 122°20'1 1.9
2017-Dec-11 16:30N 37°48' W 122°19'1 1.8
2017-Dec-11 16:00N 37°48' W 122°17'1 1.3
2017-Dec-11 15:30N 37°48' W 122°18'2 4.6
2017-Dec-11 15:00N 37°48' W 122°21'1 1.4
2017-Dec-11 14:30N 37°49' W 122°20'1 1.1
2017-Dec-11 14:00N 37°49' W 122°20'1 1.9
2017-Dec-11 13:31N 37°48' W 122°21'0 0.5
2017-Dec-11 13:00N 37°48' W 122°21'2 3.2
2017-Dec-11 12:31N 37°48' W 122°19'1 2.2
2017-Dec-11 12:01N 37°47' W 122°17'1 1.7
2017-Dec-11 11:31N 37°48' W 122°18'0 0.9
2017-Dec-11 11:01N 37°48' W 122°19'0 0.8
2017-Dec-11 10:31N 37°48' W 122°18'0 0.0
2017-Dec-11 10:01N 37°48' W 122°18'0 0.0
2017-Dec-11 09:30N 37°48' W 122°18'0 0.0
2017-Dec-11 09:00N 37°48' W 122°18'0 0.0
2017-Dec-11 08:30N 37°48' W 122°18'0 0.0
2017-Dec-11 08:00N 37°48' W 122°18'0 0.0
2017-Dec-11 07:31N 37°48' W 122°18'0 0.0
2017-Dec-11 07:01N 37°48' W 122°18'0 0.0
2017-Dec-11 06:31N 37°48' W 122°18'0 0.0
2017-Dec-11 06:01N 37°48' W 122°18'0 0.0
2017-Dec-11 05:30N 37°48' W 122°18'1 2.9
2017-Dec-11 05:00N 37°49' W 122°19'3 5.4
2017-Dec-11 04:30N 37°50' W 122°22'4 8.9
2017-Dec-11 04:00N 37°54' W 122°24'2 3.2
2017-Dec-11 03:30N 37°54' W 122°22'1 2.2
2017-Dec-11 03:00N 37°54' W 122°23'0 0.7
2017-Dec-11 02:31N 37°54' W 122°24'0 0.5
2017-Dec-11 02:01N 37°55' W 122°23'0 0.0
2017-Dec-11 01:31N 37°55' W 122°23'0 0.0
2017-Dec-11 01:00N 37°55' W 122°23'0 0.0
2017-Dec-11 00:30N 37°55' W 122°23'0 0.0
2017-Dec-11 00:00N 37°55' W 122°23'0 0.0
2017-Dec-10 23:30N 37°55' W 122°23'0 0.0
2017-Dec-10 23:00N 37°55' W 122°23'4 7.7
2017-Dec-10 22:30N 37°58' W 122°26'611.0
2017-Dec-10 22:00N 38°02' W 122°21'612.9
2017-Dec-10 21:30N 38°04' W 122°14'1011.4
2017-Dec-10 20:36N 38°04' W 122°01'312.1
2017-Dec-10 20:22N 38°03' W 121°57'512.6
2017-Dec-10 20:00N 38°02' W 121°51'4 6.5
2017-Dec-10 19:28N 38°01' W 121°47'0 0.3
2017-Dec-10 18:59N 38°01' W 121°47'2 5.0
2017-Dec-10 18:30N 38°02' W 121°50'3 5.7
2017-Dec-10 18:01N 38°03' W 121°54'1 1.1
2017-Dec-10 17:30N 38°03' W 121°54'2 1.5
2017-Dec-10 16:12N 38°02' W 121°52'0 1.3
2017-Dec-10 16:00N 38°02' W 121°52'0 0.0
2017-Dec-10 15:30N 38°02' W 121°52'0 0.0
2017-Dec-10 14:58N 38°02' W 121°52'0 0.0
2017-Dec-10 14:30N 38°02' W 121°52'1 1.4
2017-Dec-10 13:38N 38°02' W 121°53'1 9.6
2017-Dec-10 13:31N 38°03' W 121°55'711.0
2017-Dec-10 12:54N 38°04' W 122°03'4 6.9
2017-Dec-10 12:16N 38°02' W 122°08'0 0.6
2017-Dec-10 12:00N 38°02' W 122°08'1 2.7
2017-Dec-10 11:31N 38°02' W 122°10'2 3.6
2017-Dec-10 11:00N 38°02' W 122°07'3 0.5
2017-Dec-10 06:00N 38°03' W 122°11'4 8.0
2017-Dec-10 05:30N 38°04' W 122°15'4 8.9
2017-Dec-10 05:01N 38°02' W 122°21'5 8.8
2017-Dec-10 04:30N 37°59' W 122°25'4 8.4
2017-Dec-10 04:01N 37°55' W 122°25'0 0.6
2017-Dec-10 03:31N 37°55' W 122°25'0 0.0
2017-Dec-10 03:00N 37°55' W 122°25'1 2.1
2017-Dec-10 02:30N 37°55' W 122°26'0 0.1
2017-Dec-10 02:00N 37°55' W 122°26'2 3.9
2017-Dec-10 01:30N 37°54' W 122°23'0 0.3
2017-Dec-10 01:01N 37°55' W 122°23'0 0.0
2017-Dec-10 00:31N 37°55' W 122°23'0 0.0
2017-Dec-10 00:01N 37°55' W 122°23'1 2.3
2017-Dec-09 23:30N 37°55' W 122°22'0 0.4
2017-Dec-09 23:01N 37°55' W 122°22'1 2.1
2017-Dec-09 22:31N 37°54' W 122°23'4 8.7
2017-Dec-09 22:00N 37°58' W 122°26'610.7
2017-Dec-09 21:28N 38°02' W 122°21'612.5
2017-Dec-09 20:59N 38°04' W 122°14'4 0.3
2017-Dec-09 07:09N 38°02' W 122°08'0 0.0
2017-Dec-09 04:46N 38°02' W 122°08'0 0.0
2017-Dec-09 02:28N 38°02' W 122°08'0 0.3
2017-Dec-09 02:00N 38°02' W 122°08'1 0.9
2017-Dec-09 01:23N 38°02' W 122°07'0 0.0
2017-Dec-09 00:56N 38°02' W 122°07'0 0.1
2017-Dec-09 00:30N 38°02' W 122°08'1 1.9
2017-Dec-08 23:45N 38°02' W 122°09'1 0.2
2017-Dec-08 19:50N 38°02' W 122°08'0 0.0
2017-Dec-08 19:21N 38°02' W 122°08'0 0.0
2017-Dec-08 17:46N 38°02' W 122°08'2 7.6
2017-Dec-08 17:30N 38°03' W 122°11'4 8.0
2017-Dec-08 17:00N 38°03' W 122°16'0 0.0
2017-Dec-08 16:30N 38°03' W 122°16'0 0.2
2017-Dec-08 16:00N 38°03' W 122°16'2 4.1
2017-Dec-08 15:30N 38°03' W 122°18'3 5.8
2017-Dec-08 15:00N 38°02' W 122°22'3 6.2
2017-Dec-08 14:30N 38°00' W 122°25'3 6.2
2017-Dec-08 14:00N 37°57' W 122°27'2 5.1
2017-Dec-08 13:30N 37°55' W 122°26'0 0.3
2017-Dec-08 13:01N 37°55' W 122°26'1 2.9
2017-Dec-08 12:30N 37°56' W 122°26'5 9.5
2017-Dec-08 12:00N 38°01' W 122°24'5 9.9
2017-Dec-08 11:30N 38°03' W 122°18'5 9.2
2017-Dec-08 11:00N 38°03' W 122°12'3 3.7
2017-Dec-08 10:04N 38°02' W 122°08'0 1.9
2017-Dec-08 10:00N 38°02' W 122°08'1 1.4
2017-Dec-08 09:30N 38°02' W 122°09'1 1.5
2017-Dec-08 09:00N 38°02' W 122°08'0 0.0
2017-Dec-08 08:30N 38°02' W 122°08'0 0.0
2017-Dec-08 08:00N 38°02' W 122°08'0 0.0
2017-Dec-08 07:30N 38°02' W 122°08'0 0.0
2017-Dec-08 07:00N 38°02' W 122°08'0 0.0
2017-Dec-08 06:30N 38°02' W 122°08'0 0.0
2017-Dec-08 06:00N 38°02' W 122°08'0 0.0
2017-Dec-08 05:30N 38°02' W 122°08'0 0.0
2017-Dec-08 05:00N 38°02' W 122°08'0 0.0
2017-Dec-08 04:30N 38°02' W 122°08'0 0.0
2017-Dec-08 04:00N 38°02' W 122°08'0 0.0
2017-Dec-08 03:30N 38°02' W 122°08'1 2.1
2017-Dec-08 03:00N 38°02' W 122°09'5 9.1
2017-Dec-08 02:30N 38°04' W 122°15'510.0
2017-Dec-08 02:00N 38°02' W 122°21'5 9.7
2017-Dec-08 01:30N 37°59' W 122°25'5 9.6
2017-Dec-08 01:00N 37°54' W 122°25'611.5
2017-Dec-08 00:30N 37°49' W 122°21'1 2.1
2017-Dec-08 00:00N 37°49' W 122°20'2 3.1
2017-Dec-07 23:30N 37°48' W 122°19'1 1.6
2017-Dec-07 23:00N 37°48' W 122°20'2 3.3
2017-Dec-07 22:31N 37°48' W 122°22'3 5.5
2017-Dec-07 22:00N 37°49' W 122°19'0 0.0
2017-Dec-07 21:30N 37°49' W 122°19'0 0.1
2017-Dec-07 21:00N 37°49' W 122°19'0 0.1
2017-Dec-07 20:30N 37°49' W 122°19'0 0.0
2017-Dec-07 20:00N 37°49' W 122°19'0 0.0
2017-Dec-07 19:30N 37°49' W 122°19'0 0.0
2017-Dec-07 19:00N 37°49' W 122°19'0 0.0
2017-Dec-07 18:30N 37°49' W 122°19'0 0.0
2017-Dec-07 18:00N 37°49' W 122°19'0 0.0
2017-Dec-07 17:30N 37°49' W 122°19'0 0.1
2017-Dec-07 17:00N 37°49' W 122°19'0 0.1
2017-Dec-07 16:30N 37°49' W 122°19'0 0.0
2017-Dec-07 16:00N 37°49' W 122°19'0 0.0
2017-Dec-07 15:30N 37°49' W 122°19'0 0.0
2017-Dec-07 15:00N 37°49' W 122°19'0 0.0
2017-Dec-07 14:30N 37°49' W 122°19'0 0.0
2017-Dec-07 14:00N 37°49' W 122°19'0 0.0
2017-Dec-07 13:30N 37°49' W 122°19'0 0.0
2017-Dec-07 13:00N 37°49' W 122°19'1 1.4
2017-Dec-07 12:31N 37°49' W 122°19'1 2.6
2017-Dec-07 12:00N 37°48' W 122°19'0 0.1
2017-Dec-07 11:30N 37°48' W 122°19'0 0.0
2017-Dec-07 11:00N 37°48' W 122°19'0 0.0
2017-Dec-07 10:30N 37°48' W 122°19'0 0.9
2017-Dec-07 10:00N 37°48' W 122°18'2 3.0
2017-Dec-07 09:30N 37°48' W 122°20'2 3.3
2017-Dec-07 09:00N 37°49' W 122°19'0 0.1
2017-Dec-07 08:30N 37°49' W 122°19'0 0.0
2017-Dec-07 08:00N 37°49' W 122°19'0 0.0
2017-Dec-07 07:30N 37°49' W 122°19'0 0.0
2017-Dec-07 07:00N 37°49' W 122°19'0 0.0
2017-Dec-07 06:30N 37°49' W 122°19'0 0.0
2017-Dec-07 06:00N 37°49' W 122°19'0 0.0
2017-Dec-07 05:30N 37°49' W 122°19'0 0.0
2017-Dec-07 05:00N 37°49' W 122°19'0 0.0
2017-Dec-07 04:30N 37°49' W 122°19'0 0.0
2017-Dec-07 04:00N 37°49' W 122°19'0 0.0
2017-Dec-07 03:30N 37°49' W 122°19'2 4.7
2017-Dec-07 03:00N 37°50' W 122°22'611.6
2017-Dec-07 02:30N 37°55' W 122°25'712.8
2017-Dec-07 02:00N 38°01' W 122°23'713.2
2017-Dec-07 01:30N 38°03' W 122°15'611.3
2017-Dec-07 01:00N 38°02' W 122°09'  
2017-Dec-04 10:31N 37°49' W 122°19'0 0.0
2017-Dec-04 10:00N 37°49' W 122°19'0 0.0
2017-Dec-04 09:30N 37°49' W 122°19'0 0.0
2017-Dec-04 09:00N 37°49' W 122°19'0 0.0
2017-Dec-04 08:31N 37°49' W 122°19'0 0.0
2017-Dec-04 08:01N 37°49' W 122°19'0 0.0
2017-Dec-04 07:31N 37°49' W 122°19'0 0.0
2017-Dec-04 07:01N 37°49' W 122°19'0 0.0
2017-Dec-04 06:31N 37°49' W 122°19'0 0.0
2017-Dec-04 06:01N 37°49' W 122°19'0 0.0
2017-Dec-04 05:31N 37°49' W 122°19'0 0.0
2017-Dec-04 05:00N 37°49' W 122°19'0 0.0
2017-Dec-04 04:30N 37°49' W 122°19'0 0.0
2017-Dec-04 04:01N 37°49' W 122°19'0 0.0
2017-Dec-04 03:31N 37°49' W 122°19'0 0.0
2017-Dec-04 03:00N 37°49' W 122°19'0 0.0
2017-Dec-04 02:30N 37°49' W 122°19'0 0.0
2017-Dec-04 02:01N 37°49' W 122°19'0 0.0
2017-Dec-04 01:31N 37°49' W 122°19'0 0.0
2017-Dec-04 01:00N 37°49' W 122°19'0 0.0
2017-Dec-04 00:31N 37°49' W 122°19'0 0.0
2017-Dec-04 00:00N 37°49' W 122°19'0 0.0
2017-Dec-03 23:30N 37°49' W 122°19'0 0.0
2017-Dec-03 23:01N 37°49' W 122°19'0 0.0
2017-Dec-03 22:30N 37°49' W 122°19'0 0.0
2017-Dec-03 22:00N 37°49' W 122°19'0 0.0
2017-Dec-03 21:30N 37°49' W 122°19'0 0.0
2017-Dec-03 21:01N 37°49' W 122°19'0 0.0
2017-Dec-03 20:30N 37°49' W 122°19'0 0.0
2017-Dec-03 20:00N 37°49' W 122°19'0 0.0
2017-Dec-03 19:30N 37°49' W 122°19'0 0.0
2017-Dec-03 19:00N 37°49' W 122°19'0 0.0
2017-Dec-03 18:30N 37°49' W 122°19'0 0.0
2017-Dec-03 18:01N 37°49' W 122°19'0 0.0
2017-Dec-03 17:31N 37°49' W 122°19'0 0.0
2017-Dec-03 17:01N 37°49' W 122°19'0 0.0
2017-Dec-03 16:31N 37°49' W 122°19'0 0.0
2017-Dec-03 16:01N 37°49' W 122°19'0 0.0
2017-Dec-03 15:31N 37°49' W 122°19'0 0.0
2017-Dec-03 15:01N 37°49' W 122°19'0 0.0
2017-Dec-03 14:31N 37°49' W 122°19'2 3.1
2017-Dec-03 14:00N 37°48' W 122°19'0 0.3
2017-Dec-03 13:31N 37°48' W 122°20'2 3.7
2017-Dec-03 13:00N 37°48' W 122°22'3 5.6
2017-Dec-03 12:31N 37°49' W 122°19'0 0.0
2017-Dec-03 12:00N 37°49' W 122°19'0 0.0
2017-Dec-03 11:30N 37°49' W 122°19'0 0.0
2017-Dec-03 11:00N 37°49' W 122°19'0 0.0
2017-Dec-03 10:31N 37°49' W 122°19'0 0.0
2017-Dec-03 10:00N 37°49' W 122°19'0 0.0
2017-Dec-03 09:31N 37°49' W 122°19'0 0.0
2017-Dec-03 09:01N 37°49' W 122°19'0 0.0
2017-Dec-03 08:30N 37°49' W 122°19'0 0.0
2017-Dec-03 08:00N 37°49' W 122°19'0 0.0
2017-Dec-03 07:30N 37°49' W 122°19'0 0.0
2017-Dec-03 07:00N 37°49' W 122°19'0 0.0
2017-Dec-03 06:30N 37°49' W 122°19'0 0.0
2017-Dec-03 06:00N 37°49' W 122°19'0 0.0
2017-Dec-03 05:30N 37°49' W 122°19'0 0.0
2017-Dec-03 05:00N 37°49' W 122°19'0 0.0
2017-Dec-03 04:30N 37°49' W 122°19'0 0.0
2017-Dec-03 04:00N 37°49' W 122°19'0 0.2
2017-Dec-03 03:31N 37°49' W 122°19'1 1.4
2017-Dec-03 03:00N 37°49' W 122°19'0 0.6
2017-Dec-03 02:31N 37°49' W 122°20'0 0.4
2017-Dec-03 02:01N 37°49' W 122°20'1 1.5
2017-Dec-03 01:31N 37°48' W 122°20'0 0.2
2017-Dec-03 01:00N 37°48' W 122°20'2 4.2
2017-Dec-03 00:31N 37°48' W 122°22'2 3.5
2017-Dec-03 00:01N 37°49' W 122°20'0 0.0
2017-Dec-02 23:30N 37°49' W 122°20'0 0.0
2017-Dec-02 23:01N 37°49' W 122°20'0 0.0
2017-Dec-02 22:31N 37°49' W 122°20'3 6.8
2017-Dec-02 22:01N 37°51' W 122°23'5 9.2
2017-Dec-02 21:30N 37°55' W 122°25'0 0.0
2017-Dec-02 21:00N 37°55' W 122°25'0 0.9
2017-Dec-02 20:31N 37°55' W 122°25'1 2.2
2017-Dec-02 20:01N 37°55' W 122°23'0 0.0
2017-Dec-02 19:31N 37°55' W 122°23'0 0.0
2017-Dec-02 19:00N 37°55' W 122°23'3 5.9
2017-Dec-02 18:30N 37°57' W 122°26'5 9.1
2017-Dec-02 18:00N 38°01' W 122°23'5 9.3
2017-Dec-02 17:30N 38°03' W 122°18'5 9.0
2017-Dec-02 17:00N 38°03' W 122°12'4 3.5
2017-Dec-02 15:59N 38°02' W 122°08'0 1.0
2017-Dec-02 15:31N 38°02' W 122°09'0 0.0
2017-Dec-02 07:14N 38°02' W 122°08'1 1.0
2017-Dec-02 06:02N 38°02' W 122°10'0 9.4
2017-Dec-02 06:01N 38°02' W 122°09'1 1.3
2017-Dec-02 05:08N 38°02' W 122°08'0 2.8
2017-Dec-02 05:00N 38°02' W 122°08'1 1.6
2017-Dec-02 04:30N 38°02' W 122°09'1 2.0
2017-Dec-02 04:01N 38°02' W 122°08'0 0.0
2017-Dec-02 03:19N 38°02' W 122°08'0 0.7
2017-Dec-02 03:00N 38°02' W 122°08'4 8.6
2017-Dec-02 02:30N 38°04' W 122°14'4 8.7
2017-Dec-02 02:00N 38°03' W 122°19'5 9.5
2017-Dec-02 01:29N 38°00' W 122°24'5 9.5
2017-Dec-02 01:00N 37°56' W 122°25'3 5.2
2017-Dec-02 00:30N 37°54' W 122°22'0 0.9
2017-Dec-02 00:00N 37°54' W 122°22'0 0.2
2017-Dec-01 23:31N 37°55' W 122°22'1 2.2
2017-Dec-01 23:00N 37°54' W 122°23'2 4.0
2017-Dec-01 22:31N 37°53' W 122°25'510.9
2017-Dec-01 22:01N 37°48' W 122°21'2 4.5
2017-Dec-01 21:30N 37°48' W 122°18'1 1.8
2017-Dec-01 21:00N 37°48' W 122°19'2 3.2
2017-Dec-01 20:30N 37°49' W 122°19'0 0.0
2017-Dec-01 20:00N 37°49' W 122°19'0 0.0
2017-Dec-01 19:31N 37°49' W 122°19'0 0.0
2017-Dec-01 19:01N 37°49' W 122°19'0 0.0
2017-Dec-01 18:31N 37°49' W 122°19'0 0.0
2017-Dec-01 18:01N 37°49' W 122°19'0 0.0
2017-Dec-01 17:31N 37°49' W 122°19'0 0.0
2017-Dec-01 17:01N 37°49' W 122°19'  

Dump ship's entire track history